Time;durP1;ratioP1;P1;durP2;ratioP2;P2;SDS_P1;SDS_P2;PMS_P1;PMS_P2;Temp;Humidity;BMP_temperature;BMP_pressure;BME280_temperature;BME280_humidity;BME280_pressure;Samples;Min_cycle;Max_cycle;Signal;HPM_P1;HPM_P2
2022/05/20 00:02:26;;;;;;;6.50;4.77;;;22.10;99.90;;;22.81;nan;101085.25;5070609;28;20614;-68
2022/05/20 00:04:53;;;;;;;7.00;4.60;;;22.00;99.90;;;22.75;nan;101085.97;5068311;28;20673;-67
2022/05/20 00:07:20;;;;;;;7.53;5.13;;;22.00;99.90;;;22.74;nan;101084.34;5069611;28;20619;-68
2022/05/20 00:09:47;;;;;;;12.73;4.50;;;22.00;99.90;;;22.76;nan;101067.19;5065453;28;20696;-68
2022/05/20 00:12:14;;;;;;;9.80;5.07;;;22.00;99.90;;;22.75;nan;101065.53;5069049;28;20631;-67
2022/05/20 00:14:41;;;;;;;6.80;4.10;;;22.00;99.90;;;22.72;nan;101060.53;5068774;28;20666;-68
2022/05/20 00:17:08;;;;;;;6.20;4.57;;;21.90;99.90;;;22.65;nan;101064.94;5051793;28;20627;-67
2022/05/20 00:19:35;;;;;;;4.33;3.80;;;21.90;99.90;;;22.66;nan;101068.44;5050658;28;20634;-68
2022/05/20 00:22:05;;;;;;;4.80;4.30;;;21.90;99.90;;;22.63;nan;101053.66;5069500;28;20635;-67
2022/05/20 00:24:33;;;;;;;4.00;3.63;;;21.90;99.90;;;22.66;nan;101050.63;5069267;28;20671;-67
2022/05/20 00:27:00;;;;;;;9.90;4.47;;;21.90;99.90;;;22.57;nan;101045.53;5069338;28;20630;-68
2022/05/20 00:29:27;;;;;;;4.13;3.73;;;21.80;99.90;;;22.50;nan;101053.38;5068633;28;21044;-67
2022/05/20 00:31:54;;;;;;;5.83;3.80;;;21.70;99.90;;;22.51;nan;101060.34;5069232;28;20992;-67
2022/05/20 00:34:21;;;;;;;4.80;3.70;;;21.70;99.90;;;22.53;nan;101066.31;5068068;28;20683;-68
2022/05/20 00:36:48;;;;;;;4.20;3.80;;;21.70;99.90;;;22.51;nan;101073.63;5069847;28;20623;-67
2022/05/20 00:39:15;;;;;;;5.30;4.00;;;21.70;99.90;;;22.57;nan;101070.28;5049939;28;20634;-66
2022/05/20 00:41:42;;;;;;;6.33;4.00;;;21.80;99.90;;;22.62;nan;101072.44;5054750;28;21016;-68
2022/05/20 00:44:09;;;;;;;5.47;3.97;;;21.90;99.90;;;22.63;nan;101072.28;5070345;28;20670;-67
2022/05/20 00:46:36;;;;;;;5.53;4.03;;;21.90;99.90;;;22.72;nan;101081.81;5072269;28;20650;-67
2022/05/20 00:49:10;;;;;;;4.90;4.40;;;22.00;99.90;;;22.82;nan;101074.44;5071154;28;20676;-67
2022/05/20 00:51:46;;;;;;;6.73;4.73;;;22.10;99.90;;;22.82;nan;101066.47;5054627;28;20630;-68
2022/05/20 00:54:21;;;;;;;8.13;4.57;;;22.10;99.90;;;22.78;nan;101067.00;5053043;28;20639;-68
2022/05/20 00:57:33;;;;;;;8.00;4.93;;;22.10;99.90;;;22.71;nan;101053.59;5065854;28;20638;-67
2022/05/20 01:00:12;;;;;;;7.10;5.00;;;22.00;99.90;;;22.76;nan;101047.72;4970767;28;20690;-68
2022/05/20 01:02:40;;;;;;;9.07;5.67;;;22.00;99.90;;;22.80;nan;101047.19;4972046;28;20642;-68
2022/05/20 01:05:23;;;;;;;12.83;5.50;;;22.10;99.90;;;22.82;nan;101053.16;5009331;28;20702;-66
2022/05/20 01:07:51;;;;;;;8.93;5.83;;;22.10;99.90;;;22.74;nan;101060.38;5048367;28;20997;-68
2022/05/20 01:10:18;;;;;;;10.90;7.20;;;22.00;99.90;;;22.79;nan;101072.13;5071717;28;20641;-67
2022/05/20 01:12:45;;;;;;;8.50;5.70;;;22.10;99.90;;;22.78;nan;101070.50;5070838;28;20682;-67
2022/05/20 01:15:12;;;;;;;6.60;6.00;;;22.10;99.90;;;22.84;nan;101087.56;5054442;28;20670;-67
2022/05/20 01:17:40;;;;;;;8.90;7.20;;;22.20;99.90;;;22.80;nan;101092.44;5070082;28;21065;-67
2022/05/20 01:20:13;;;;;;;9.80;7.00;;;22.20;99.90;;;22.78;nan;101093.59;5073612;28;20626;-69
2022/05/20 01:22:39;;;;;;;7.60;6.30;;;22.10;99.90;;;22.73;nan;101099.47;5054482;28;20621;-67
2022/05/20 01:25:09;;;;;;;9.63;6.90;;;22.10;99.90;;;22.65;nan;101088.06;5071955;28;20686;-67
2022/05/20 01:27:42;;;;;;;10.00;6.67;;;21.90;99.90;;;22.59;nan;101076.28;5071339;28;20630;-67
2022/05/20 01:30:13;;;;;;;10.57;7.20;;;21.90;99.90;;;22.57;nan;101072.13;5071889;28;20639;-67
2022/05/20 01:32:40;;;;;;;8.50;6.37;;;21.80;99.90;;;22.55;nan;101067.00;5071393;28;20623;-67
2022/05/20 01:35:25;;;;;;;11.70;6.60;;;21.80;99.90;;;22.53;nan;101060.19;5072924;28;20650;-66
2022/05/20 01:37:52;;;;;;;11.87;6.20;;;21.80;99.90;;;22.51;nan;101055.03;5056006;28;20634;-67
2022/05/20 01:40:19;;;;;;;10.50;7.20;;;21.80;99.90;;;22.37;nan;101067.25;5071489;28;20626;-67
2022/05/20 01:43:40;;;;;;;7.50;6.77;;;21.70;99.90;;;22.39;nan;101064.41;5042496;28;20631;-69
2022/05/20 01:46:41;;;;;;;8.40;6.07;;;21.70;99.90;;;22.39;nan;101064.41;5057440;28;20658;-65
2022/05/20 01:49:56;;;;;;;6.97;5.73;;;21.60;99.90;;;22.35;nan;101069.28;5066664;28;20622;-67
2022/05/20 01:52:42;;;;;;;11.10;8.00;;;21.60;99.90;;;22.27;nan;101082.63;5026003;28;20640;-69
2022/05/20 01:55:33;;;;;;;8.20;6.97;;;21.50;99.90;;;22.21;nan;101090.47;5008049;28;20679;-64
2022/05/20 01:58:15;;;;;;;10.47;6.90;;;21.50;99.90;;;22.24;nan;101096.25;5048242;28;20638;-67
2022/05/20 02:00:45;;;;;;;8.60;7.67;;;21.50;99.90;;;22.10;nan;101096.16;5073032;28;20626;-67
2022/05/20 02:03:35;;;;;;;10.87;8.00;;;21.50;99.90;;;22.12;nan;101089.69;5054670;28;20649;-68
2022/05/20 02:06:28;;;;;;;9.17;7.20;;;21.50;99.90;;;22.03;nan;101084.56;5036779;28;20666;-68
2022/05/20 02:09:07;;;;;;;8.20;6.73;;;21.30;99.90;;;21.97;nan;101085.25;5047887;28;20688;-68
2022/05/20 02:11:45;;;;;;;9.17;6.90;;;21.30;99.90;;;21.89;nan;101072.81;5070804;28;21055;-68
2022/05/20 02:14:29;;;;;;;14.47;7.53;;;21.20;99.90;;;21.89;nan;101066.69;5071815;28;21156;-67
2022/05/20 02:17:24;;;;;;;13.60;8.77;;;21.20;99.90;;;21.85;nan;101068.84;5080997;23;20687;-63
2022/05/20 02:20:00;;;;;;;16.20;9.00;;;21.20;99.90;;;21.91;nan;101064.69;5043726;28;20624;-67
2022/05/20 02:22:36;;;;;;;12.40;9.43;;;21.20;99.90;;;21.78;nan;101049.28;5046283;28;21009;-67
2022/05/20 02:25:07;;;;;;;12.43;9.27;;;21.20;99.90;;;21.74;nan;101047.97;5062111;28;20655;-66
2022/05/20 02:27:41;;;;;;;9.53;7.30;;;21.00;99.90;;;21.60;nan;101046.00;5065662;28;20646;-66
2022/05/20 02:30:16;;;;;;;12.23;8.77;;;21.00;99.90;;;21.62;nan;101051.97;5066146;28;20737;-67
2022/05/20 02:33:05;;;;;;;11.77;8.70;;;20.90;99.90;;;21.49;nan;101051.69;5083777;28;20614;-70
2022/05/20 02:35:34;;;;;;;15.63;8.70;;;20.80;99.90;;;21.43;nan;101039.94;5062626;28;20709;-67
2022/05/20 02:38:33;;;;;;;11.90;8.10;;;20.80;99.90;;;21.22;nan;101052.09;5063497;28;21204;-70
2022/05/20 02:41:00;;;;;;;10.97;8.17;;;20.70;99.90;;;21.35;nan;101037.31;5078811;28;20660;-64
2022/05/20 02:43:27;;;;;;;14.43;7.60;;;20.70;99.90;;;21.34;nan;101038.28;5082992;28;20623;-68
2022/05/20 02:45:54;;;;;;;10.87;8.17;;;20.60;99.90;;;21.28;nan;101038.13;5080922;28;20659;-65
2022/05/20 02:48:24;;;;;;;10.27;6.60;;;20.60;99.90;;;21.26;nan;101032.19;5064040;28;21140;-67
2022/05/20 02:50:51;;;;;;;10.47;8.10;;;20.60;99.90;;;21.24;nan;101044.78;5067178;28;21009;-67
2022/05/20 02:53:19;;;;;;;13.47;10.73;;;20.60;99.90;;;21.25;nan;101051.75;5069864;28;20634;-67
2022/05/20 02:55:46;;;;;;;13.87;8.77;;;20.50;99.90;;;21.27;nan;101057.72;5069960;28;20650;-67
2022/05/20 03:04:11;;;;;;;11.90;7.83;;;20.60;99.90;;;21.41;nan;101041.94;5067134;28;21259;-67
2022/05/20 03:06:45;;;;;;;12.00;8.00;;;20.70;99.90;;;21.47;nan;101035.94;5069700;28;21234;-66
2022/05/20 03:09:15;;;;;;;13.50;8.53;;;20.80;99.90;;;21.55;nan;101038.56;5069875;28;20630;-66
2022/05/20 03:11:43;;;;;;;14.23;8.77;;;20.80;99.90;;;21.50;nan;101040.09;5052965;28;21184;-67
2022/05/20 03:14:13;;;;;;;12.43;9.30;;;20.80;99.90;;;21.49;nan;101036.59;5050751;28;20643;-66
2022/05/20 03:16:41;;;;;;;11.50;8.73;;;20.80;99.90;;;21.54;nan;101036.09;5069955;28;20677;-67
2022/05/20 03:19:08;;;;;;;15.00;9.27;;;20.80;99.90;;;21.55;nan;101035.91;5070296;28;20619;-67
2022/05/20 03:21:37;;;;;;;14.10;8.17;;;20.80;99.90;;;21.50;nan;101024.16;5050911;28;20642;-68
2022/05/20 03:24:06;;;;;;;11.37;8.80;;;20.80;99.90;;;21.50;nan;101030.31;5070007;28;20665;-67
2022/05/20 03:26:35;;;;;;;14.73;9.70;;;20.80;99.90;;;21.55;nan;101032.44;5070381;28;20658;-66
2022/05/20 03:29:04;;;;;;;15.13;10.13;;;20.80;99.90;;;21.51;nan;101028.44;5052123;28;20634;-69
2022/05/20 03:31:37;;;;;;;17.33;9.00;;;20.90;99.90;;;21.56;nan;101034.91;5038262;28;20628;-67
2022/05/20 03:34:05;;;;;;;16.97;9.90;;;20.90;99.90;;;21.57;nan;101017.97;5045146;28;20632;-66
2022/05/20 03:36:42;;;;;;;12.00;8.87;;;20.90;99.90;;;21.51;nan;101015.16;5063338;28;21108;-67
2022/05/20 03:39:13;;;;;;;13.17;9.43;;;20.80;99.90;;;21.52;nan;101016.84;5049158;28;20630;-66
2022/05/20 03:41:41;;;;;;;13.53;10.27;;;20.80;99.90;;;21.51;nan;101017.81;5042351;28;20635;-67
2022/05/20 03:44:11;;;;;;;14.23;10.23;;;20.80;99.90;;;21.61;nan;101016.63;5071070;28;20661;-67
2022/05/20 03:46:51;;;;;;;15.07;10.90;;;20.90;99.90;;;21.61;nan;101021.94;5068964;28;20642;-66
2022/05/20 03:49:21;;;;;;;17.90;11.73;;;20.90;99.90;;;21.53;nan;101021.13;5068264;28;21198;-66
2022/05/20 03:51:51;;;;;;;14.30;10.30;;;20.90;99.90;;;21.54;nan;101012.19;5051590;28;20611;-67
2022/05/20 03:54:21;;;;;;;18.50;12.37;;;20.80;99.90;;;21.48;nan;101016.38;5068899;28;20638;-68
2022/05/20 03:56:48;;;;;;;17.80;10.90;;;20.80;99.90;;;21.54;nan;101017.50;5050984;28;21437;-68
2022/05/20 03:59:15;;;;;;;15.60;10.10;;;20.90;99.90;;;21.51;nan;101021.31;5069243;28;20635;-65
2022/05/20 04:01:59;;;;;;;12.40;8.53;;;20.80;99.90;;;21.51;nan;101010.69;5069251;28;21191;-66
2022/05/20 04:04:41;;;;;;;14.33;10.77;;;20.80;99.90;;;21.48;nan;101020.84;5053166;28;20662;-67
2022/05/20 04:07:18;;;;;;;20.00;12.17;;;20.80;99.90;;;21.53;nan;101035.25;5069448;28;21004;-68
2022/05/20 04:09:45;;;;;;;15.17;10.40;;;20.90;99.90;;;21.54;nan;101034.25;5066910;28;20692;-67
2022/05/20 04:12:28;;;;;;;15.43;10.60;;;20.90;99.90;;;21.46;nan;101028.16;5069758;28;20623;-67
2022/05/20 04:14:56;;;;;;;18.23;12.20;;;20.80;99.90;;;21.48;nan;101042.91;5050395;28;20622;-67
2022/05/20 04:17:23;;;;;;;15.80;11.70;;;20.80;99.90;;;21.60;nan;101030.09;5055411;28;20631;-69
2022/05/20 04:19:51;;;;;;;18.93;11.77;;;20.90;99.90;;;21.71;nan;101035.03;5072417;28;20638;-67
2022/05/20 04:22:30;;;;;;;19.17;13.00;;;21.10;99.90;;;21.71;nan;101024.41;5057009;28;21191;-68
2022/05/20 04:24:58;;;;;;;22.07;11.80;;;21.10;99.90;;;21.77;nan;101026.38;5054739;28;20677;-68
2022/05/20 04:27:29;;;;;;;21.17;13.10;;;21.20;99.90;;;21.73;nan;101032.19;5072341;28;20995;-66
2022/05/20 04:29:57;;;;;;;17.00;11.87;;;21.10;99.90;;;21.72;nan;101041.16;5071274;28;21229;-67
2022/05/20 04:32:24;;;;;;;19.77;13.13;;;21.10;99.90;;;21.72;nan;101038.53;5073726;28;21187;-67
2022/05/20 04:34:52;;;;;;;20.67;14.33;;;21.10;99.90;;;21.67;nan;101033.72;5071948;28;20674;-67
2022/05/20 04:37:25;;;;;;;19.63;13.30;;;21.10;99.90;;;21.71;nan;101042.16;5055817;28;20629;-67
2022/05/20 04:39:52;;;;;;;19.50;12.70;;;21.00;99.90;;;21.79;nan;101040.28;5054996;28;20620;-68
2022/05/20 04:47:52;;;;;;;20.37;12.30;;;21.20;99.90;;;21.78;nan;101046.63;5058974;28;20652;-66
2022/05/20 04:50:19;;;;;;;20.90;12.20;;;21.10;99.90;;;21.80;nan;101057.06;5054272;28;20641;-66
2022/05/20 04:52:46;;;;;;;18.87;12.93;;;21.10;99.90;;;21.78;nan;101065.22;5038672;28;20630;-67
2022/05/20 04:55:13;;;;;;;17.37;12.20;;;21.20;99.90;;;21.81;nan;101070.16;5053857;28;20654;-66
2022/05/20 04:57:49;;;;;;;19.57;13.50;;;21.20;99.90;;;21.79;nan;101072.16;5072681;28;20662;-66
2022/05/20 05:00:22;;;;;;;21.03;13.07;;;21.20;99.90;;;21.67;nan;101084.19;5071666;28;21381;-69
2022/05/20 05:02:50;;;;;;;16.90;11.60;;;21.00;99.90;;;21.77;nan;101090.09;5055731;28;20627;-66
2022/05/20 05:05:25;;;;;;;18.17;12.97;;;21.10;99.90;;;21.75;nan;101097.41;5053751;28;20669;-67
2022/05/20 05:07:55;;;;;;;18.70;10.90;;;21.10;99.90;;;21.82;nan;101097.56;5053290;28;20984;-67
2022/05/20 05:10:26;;;;;;;21.03;13.33;;;21.20;99.90;;;21.90;nan;101082.47;5055523;28;20624;-66
2022/05/20 05:12:53;;;;;;;23.10;15.00;;;21.30;99.90;;;21.86;nan;101078.50;5057401;28;21008;-67
2022/05/20 05:15:20;;;;;;;21.10;14.40;;;21.30;99.90;;;21.84;nan;101075.19;5071158;28;21065;-66
2022/05/20 05:20:33;;;;;;;24.23;15.23;;;21.30;99.90;;;21.97;nan;101074.63;5071428;28;20646;-68
2022/05/20 05:23:01;;;;;;;17.93;12.97;;;21.40;99.90;;;22.09;nan;101073.22;5070336;28;20657;-68
2022/05/20 05:25:32;;;;;;;26.90;16.17;;;21.50;99.90;;;22.10;nan;101061.63;5071917;28;20678;-66
2022/05/20 05:27:59;;;;;;;26.40;15.43;;;21.60;99.90;;;22.28;nan;101070.13;5071888;28;20634;-67
2022/05/20 05:30:28;;;;;;;23.90;15.20;;;21.70;99.90;;;22.50;nan;101063.19;5056005;28;20642;-68
2022/05/20 05:32:55;;;;;;;26.27;15.90;;;21.90;99.90;;;22.74;nan;101061.22;5055751;28;21016;-67
2022/05/20 05:35:26;;;;;;;24.03;16.10;;;22.10;99.90;;;22.99;nan;101048.53;5072015;28;20729;-67
2022/05/20 05:37:54;;;;;;;29.80;16.23;;;22.50;99.90;;;23.20;nan;101053.13;5053013;28;20971;-67
2022/05/20 05:40:26;;;;;;;24.17;14.77;;;22.70;99.90;;;23.52;nan;101058.16;5049843;28;20656;-68
2022/05/20 05:42:55;;;;;;;23.80;13.70;;;22.90;99.90;;;23.86;nan;101061.06;5072789;28;20626;-69
2022/05/20 05:45:24;;;;;;;21.27;14.53;;;23.30;99.90;;;24.15;nan;101053.03;5072008;28;20666;-66
2022/05/20 05:48:18;;;;;;;26.10;15.70;;;23.60;99.90;;;24.56;nan;101053.28;5071441;28;20638;-68
2022/05/20 05:50:45;;;;;;;26.35;18.02;;;24.10;99.90;;;25.03;nan;101058.88;5030509;28;24440;-68
2022/05/20 05:53:19;;;;;;;25.97;15.60;;;24.60;99.90;;;25.32;nan;101039.16;5057312;28;20227;-65
2022/05/20 05:55:53;;;;;;;23.10;15.17;;;24.90;99.90;;;25.59;nan;101035.63;5054365;28;20658;-66
2022/05/20 05:58:20;;;;;;;19.10;13.17;;;25.10;99.90;;;26.08;nan;101036.28;5071835;28;20622;-66
2022/05/20 06:00:47;;;;;;;18.23;11.77;;;25.60;99.90;;;26.52;nan;101035.75;5070437;28;20642;-67
2022/05/20 06:03:16;;;;;;;20.50;13.60;;;26.10;99.90;;;27.00;nan;101039.09;5072082;28;20622;-67
2022/05/20 06:05:44;;;;;;;18.30;13.03;;;26.60;99.90;;;27.54;nan;101038.78;5070566;28;20674;-66
2022/05/20 06:08:11;;;;;;;23.07;12.67;;;27.20;99.90;;;28.00;nan;101039.50;5072413;28;20618;-66
2022/05/20 06:10:39;;;;;;;17.90;11.40;;;27.60;99.90;;;28.33;nan;101034.75;5052897;28;20630;-66
2022/05/20 06:13:06;;;;;;;21.27;12.23;;;28.00;99.90;;;28.82;nan;101044.75;5070661;28;20619;-66
2022/05/20 06:15:33;;;;;;;11.50;8.40;;;28.40;99.90;;;29.29;nan;101045.16;5070303;28;20670;-65
2022/05/20 06:18:00;;;;;;;13.67;8.80;;;29.00;99.20;;;29.28;nan;101051.59;5072022;28;21189;-66
2022/05/20 06:20:28;;;;;;;14.93;9.90;;;28.90;98.20;;;29.46;nan;101048.91;5068886;28;20641;-66
2022/05/20 06:22:56;;;;;;;14.20;10.27;;;29.10;97.40;;;29.94;nan;101049.81;5053339;28;21180;-67
2022/05/20 06:25:24;;;;;;;14.53;9.77;;;29.50;96.80;;;30.71;nan;101056.19;5070132;28;21425;-66
2022/05/20 06:27:51;;;;;;;12.73;10.53;;;30.30;95.40;;;31.53;nan;101064.09;5070684;28;20623;-66
2022/05/20 06:30:20;;;;;;;12.77;9.27;;;31.20;93.70;;;32.27;nan;101067.75;5070131;28;20634;-67
2022/05/20 06:32:47;;;;;;;13.27;9.27;;;32.00;91.70;;;32.41;nan;101074.53;5070881;28;21151;-66
2022/05/20 06:40:49;;;;;;;11.80;9.53;;;33.30;85.30;;;34.33;nan;101057.31;5073115;28;20685;-64
2022/05/20 06:43:19;;;;;;;14.80;9.87;;;33.90;81.50;;;34.24;nan;101059.69;5051502;28;20692;-64
2022/05/20 06:45:52;;;;;;;13.30;10.80;;;33.90;79.90;;;34.05;nan;101055.69;5053924;28;20658;-64
2022/05/20 06:48:48;;;;;;;11.23;10.00;;;33.60;79.40;;;33.45;nan;101049.47;5054627;28;20614;-67
2022/05/20 06:51:25;;;;;;;15.57;9.90;;;33.00;79.70;;;33.60;nan;101052.41;5050139;28;21234;-64
2022/05/20 06:53:55;;;;;;;11.57;8.40;;;33.00;80.10;;;34.12;nan;101050.03;5063336;28;20999;-65
2022/05/20 06:56:28;;;;;;;13.70;10.33;;;33.50;78.80;;;34.24;nan;101053.44;5052899;28;20742;-67
2022/05/20 06:58:56;;;;;;;11.07;9.77;;;33.70;76.50;;;34.03;nan;101055.09;5067043;28;20642;-65
2022/05/20 07:01:24;;;;;;;12.40;9.70;;;33.50;76.40;;;34.39;nan;101057.09;5071550;28;20619;-67
2022/05/20 07:03:51;;;;;;;10.60;8.73;;;33.80;75.70;;;34.60;nan;101047.31;5068451;28;20635;-66
2022/05/20 07:06:19;;;;;;;10.13;9.03;;;34.10;74.40;;;33.87;nan;101058.69;5052504;28;20681;-64
2022/05/20 07:08:49;;;;;;;15.20;11.10;;;33.40;74.90;;;32.90;nan;101055.66;5068829;28;20679;-65
2022/05/20 07:11:22;;;;;;;12.63;9.50;;;32.40;77.00;;;32.85;nan;101052.91;5070756;28;20630;-65
2022/05/20 07:13:55;;;;;;;11.37;9.70;;;32.10;78.60;;;33.16;nan;101048.78;5068346;28;20635;-64
2022/05/20 07:16:28;;;;;;;12.93;9.33;;;32.50;78.30;;;33.74;nan;101060.94;5052384;28;21289;-66
2022/05/20 07:18:56;;;;;;;18.20;9.93;;;33.10;76.90;;;33.75;nan;101054.47;5051452;28;20642;-65
2022/05/20 07:21:23;;;;;;;10.60;8.67;;;33.20;75.80;;;33.01;nan;101036.94;5053011;28;20626;-64
2022/05/20 07:23:50;;;;;;;11.90;10.40;;;32.70;75.80;;;31.73;nan;101037.53;5067856;28;20639;-65
2022/05/20 07:26:17;;;;;;;16.40;10.30;;;31.20;79.20;;;30.61;nan;101022.56;5075408;28;20668;-65
2022/05/20 07:28:45;;;;;;;14.00;10.67;;;30.00;82.90;;;30.44;nan;101018.06;5080567;28;20626;-65
2022/05/20 07:31:13;;;;;;;20.33;9.70;;;29.70;85.00;;;30.84;nan;101008.28;5073167;28;20638;-65
2022/05/20 07:33:40;;;;;;;23.43;11.13;;;30.10;85.50;;;31.54;nan;101009.09;5067973;28;20639;-65
2022/05/20 07:36:07;;;;;;;12.47;10.03;;;30.90;83.50;;;32.18;nan;101009.84;5065055;28;20690;-65
2022/05/20 07:38:35;;;;;;;12.13;9.80;;;31.60;82.00;;;33.33;nan;101013.59;5068882;28;21175;-65
2022/05/20 07:41:02;;;;;;;11.10;9.87;;;32.80;79.40;;;34.89;nan;100997.09;5074547;28;20694;-64
2022/05/20 07:43:29;;;;;;;13.73;9.83;;;34.40;75.50;;;36.23;nan;101002.53;5086455;28;20625;-65
2022/05/20 07:45:56;;;;;;;14.93;10.40;;;35.90;71.20;;;36.55;nan;101000.41;5077208;28;20671;-65
2022/05/20 07:48:23;;;;;;;11.67;9.60;;;36.50;68.40;;;37.75;nan;100995.75;5082768;28;20631;-65
2022/05/20 07:51:01;;;;;;;13.60;10.20;;;37.30;66.60;;;38.70;nan;100990.72;5060512;28;20631;-66
2022/05/20 07:53:39;;;;;;;16.23;10.83;;;38.40;63.80;;;38.97;nan;100992.91;5050071;28;20640;-65
2022/05/20 07:56:13;;;;;;;13.30;10.50;;;38.60;61.70;;;39.53;nan;100986.50;5069156;28;20677;-66
2022/05/20 07:59:19;;;;;;;12.73;10.27;;;39.10;60.50;;;40.00;nan;100993.81;5051422;28;20630;-65
2022/05/20 08:01:51;;;;;;;12.63;10.37;;;39.50;58.70;;;39.22;nan;100990.72;5009369;28;20656;-65
2022/05/20 08:07:13;;;;;;;13.03;9.97;;;39.00;58.40;;;39.82;nan;100991.06;5054729;28;20658;-66
2022/05/20 08:09:40;;;;;;;12.27;10.80;;;39.30;57.60;;;40.17;nan;100988.63;5068639;28;20666;-65
2022/05/20 08:12:08;;;;;;;11.30;10.10;;;39.80;56.70;;;41.13;nan;100989.66;5069658;28;20638;-66
2022/05/20 08:14:41;;;;;;;10.40;8.07;;;40.70;56.10;;;;;;5068810;28;20634;-67
2022/05/20 08:17:08;;;;;;;7.73;6.93;;;41.90;53.60;;;;;;5033317;23;21043;-67
2022/05/20 08:19:35;;;;;;;9.57;7.60;;;42.80;51.10;;;;;;5009307;28;20624;-67
2022/05/20 08:22:02;;;;;;;8.20;6.00;;;43.40;50.50;;;;;;5015943;28;20627;-66
2022/05/20 08:24:30;;;;;;;6.57;6.00;;;44.10;49.30;;;;;;5029524;28;20608;-63
2022/05/20 08:26:57;;;;;;;5.83;5.20;;;43.90;47.80;;;;;;5013933;28;20673;-68
2022/05/20 08:29:24;;;;;;;8.40;5.40;;;43.50;47.20;;;;;;5023862;28;21228;-66
2022/05/20 08:31:51;;;;;;;6.63;6.13;;;44.30;46.70;;;45.25;nan;100962.44;5015568;28;21195;-71
2022/05/20 08:34:18;;;;;;;6.20;5.70;;;45.10;45.70;;;46.11;nan;100962.56;5009930;28;20625;-69
2022/05/20 08:36:44;;;;;;;6.50;5.90;;;45.90;45.00;;;45.89;nan;100958.25;5009957;28;21307;-68
2022/05/20 08:39:12;;;;;;;15.13;5.50;;;45.60;44.40;;;45.04;nan;100956.88;5009043;28;20641;-68
2022/05/20 08:41:45;;;;;;;7.27;5.67;;;44.70;44.30;;;44.66;nan;100942.31;5009477;28;20621;-69
2022/05/20 08:44:17;;;;;;;5.67;5.17;;;44.40;44.40;;;44.99;nan;100943.28;5008068;28;21003;-68
2022/05/20 08:46:45;;;;;;;5.23;4.83;;;44.30;44.50;;;45.04;nan;100934.84;5009097;28;20696;-68
2022/05/20 08:49:17;;;;;;;5.70;5.20;;;44.50;44.30;;;45.87;nan;100929.38;5009392;28;20637;-68
2022/05/20 08:51:54;;;;;;;6.40;5.77;;;45.30;43.90;;;46.38;nan;100925.31;5022308;28;20632;-68
2022/05/20 08:54:21;;;;;;;5.30;4.80;;;45.80;43.50;;;47.47;nan;100931.66;5010111;28;20687;-68
2022/05/20 08:56:49;;;;;;;5.63;4.90;;;47.00;43.00;;;46.75;nan;100938.00;5019540;28;20668;-66
2022/05/20 08:59:20;;;;;;;6.60;5.27;;;46.60;42.50;;;45.47;nan;100937.34;5027557;28;21251;-67
2022/05/20 09:01:51;;;;;;;5.87;5.37;;;45.00;43.30;;;46.05;nan;100933.59;4992962;28;20624;-69
2022/05/20 09:04:22;;;;;;;5.33;4.93;;;46.00;42.80;;;45.70;nan;100929.53;5025693;28;20644;-66
2022/05/20 09:07:14;;;;;;;4.90;4.50;;;45.20;42.90;;;45.87;nan;100926.63;5013562;28;20691;-66
2022/05/20 09:10:01;;;;;;;7.17;5.70;;;45.30;42.70;;;46.94;nan;100924.44;5010707;28;20630;-68
2022/05/20 09:12:36;;;;;;;5.63;5.20;;;46.40;42.10;;;46.42;nan;100917.97;4992595;28;20613;-70
2022/05/20 09:18:11;;;;;;;4.97;4.77;;;46.10;42.30;;;47.35;nan;100912.28;5032963;28;20620;-67
2022/05/20 09:21:05;;;;;;;9.27;4.60;;;46.80;41.90;;;44.56;nan;100913.19;5020525;28;20655;-67
2022/05/20 09:23:47;;;;;;;5.67;5.17;;;45.50;41.10;;;45.42;nan;100909.97;4990839;28;20646;-68
2022/05/20 09:26:16;;;;;;;5.17;4.87;;;44.70;42.40;;;47.53;nan;100899.84;5020283;28;20665;-64
2022/05/20 09:29:06;;;;;;;7.77;5.37;;;46.90;41.50;;;47.63;nan;100901.28;5014316;28;21040;-65
2022/05/20 09:32:00;;;;;;;5.33;4.90;;;47.20;40.90;;;46.91;nan;100894.75;4995468;28;20598;-68
2022/05/20 09:34:27;;;;;;;4.63;4.33;;;47.40;40.20;;;46.89;nan;100890.72;5020629;28;20637;-65
2022/05/20 09:37:01;;;;;;;6.13;5.37;;;46.50;40.90;;;46.74;nan;100890.28;5014378;28;20653;-69
2022/05/20 09:39:34;;;;;;;5.30;4.93;;;46.10;41.20;;;48.11;nan;100881.72;5010110;28;21205;-65
2022/05/20 09:42:13;;;;;;;6.40;5.03;;;47.40;40.80;;;49.19;nan;100870.91;5003774;28;20649;-66
2022/05/20 09:44:44;;;;;;;5.27;4.97;;;48.80;40.00;;;49.75;nan;100858.19;5001017;28;20625;-66
2022/05/20 09:47:43;;;;;;;4.77;4.50;;;49.40;39.20;;;46.83;nan;100852.28;5009784;28;21065;-68
2022/05/20 09:50:28;;;;;;;5.17;4.83;;;47.50;39.80;;;46.60;nan;100848.38;4991604;28;21020;-67
2022/05/20 09:53:04;;;;;;;5.27;4.87;;;46.60;40.30;;;46.57;nan;100837.22;5013365;28;20617;-69
2022/05/20 09:55:40;;;;;;;4.80;4.53;;;46.10;40.60;;;47.60;nan;100844.75;5014481;28;20649;-69
2022/05/20 09:58:27;;;;;;;5.33;4.07;;;47.10;40.20;;;46.01;nan;100833.38;5012023;28;20628;-68
2022/05/20 10:01:10;;;;;;;5.90;5.33;;;45.70;40.90;;;45.27;nan;100837.00;5012275;28;20637;-69
2022/05/20 10:03:47;;;;;;;3.93;3.73;;;44.80;41.20;;;42.59;nan;100808.00;5016945;28;20628;-68
2022/05/20 10:06:34;;;;;;;5.30;4.80;;;42.90;41.30;;;42.04;nan;100815.78;5009294;28;20665;-64
2022/05/20 10:09:15;;;;;;;5.40;5.00;;;41.70;42.80;;;42.87;nan;100827.78;5019069;28;20622;-70
2022/05/20 10:12:11;;;;;;;10.77;5.03;;;42.10;43.10;;;44.29;nan;100833.81;5015969;28;21171;-67
2022/05/20 10:14:56;;;;;;;7.10;4.97;;;43.70;42.20;;;43.28;nan;100825.41;5008502;28;20981;-68
2022/05/20 10:17:57;;;;;;;6.27;4.90;;;43.20;42.50;;;41.97;nan;100799.00;5007632;28;20669;-69
2022/05/20 10:20:50;;;;;;;7.20;5.27;;;41.50;43.50;;;39.97;nan;100805.00;4995218;28;20644;-67
2022/05/20 10:23:40;;;;;;;5.83;5.33;;;39.40;45.30;;;39.41;nan;100791.47;4993273;28;20648;-68
2022/05/20 10:26:30;;;;;;;6.17;5.47;;;38.60;46.40;;;38.27;nan;100803.59;5010490;28;21287;-68
2022/05/20 10:32:36;;;;;;;6.33;5.57;;;35.60;49.50;;;35.56;nan;100792.84;5020007;28;20636;-68
2022/05/20 10:35:14;;;;;;;6.03;5.47;;;35.30;50.90;;;35.46;nan;100790.91;5030974;28;20705;-68
2022/05/20 10:38:52;;;;;;;6.10;5.10;;;34.60;51.80;;;34.68;nan;100781.22;5031174;28;20628;-67
2022/05/20 10:42:01;;;;;;;5.83;5.30;;;34.40;52.50;;;34.63;nan;100778.47;5008413;28;20638;-67
2022/05/20 10:48:34;;;;;;;7.70;5.50;;;33.30;54.40;;;33.48;nan;100759.47;5016394;28;20669;-70
2022/05/20 10:51:18;;;;;;;7.33;5.53;;;32.60;55.30;;;33.46;nan;100753.53;5011344;28;20633;-67
2022/05/20 10:54:34;;;;;;;7.00;5.70;;;32.60;56.10;;;33.60;nan;100736.66;5010198;28;20656;-67
2022/05/20 10:57:37;;;;;;;6.60;5.87;;;32.80;55.90;;;33.57;nan;100720.91;5023713;28;20671;-67
2022/05/20 11:00:06;;;;;;;5.70;5.20;;;32.80;56.20;;;33.33;nan;100706.06;5009771;28;20626;-67
2022/05/20 11:03:13;;;;;;;10.30;5.67;;;32.60;56.40;;;32.92;nan;100689.72;5014295;28;20640;-67
2022/05/20 11:06:22;;;;;;;8.10;5.63;;;32.10;57.50;;;31.79;nan;100658.06;5009660;28;20649;-67
2022/05/20 11:09:14;;;;;;;6.13;5.53;;;31.50;58.20;;;31.46;nan;100644.59;5010443;28;20672;-67
2022/05/20 11:11:59;;;;;;;8.20;6.07;;;30.70;59.50;;;31.46;nan;100645.41;5010190;28;20617;-67
2022/05/20 11:15:11;;;;;;;7.63;5.73;;;30.50;60.10;;;31.23;nan;100624.81;5020929;28;20647;-63
2022/05/20 11:18:21;;;;;;;6.07;5.30;;;30.50;60.30;;;31.37;nan;100615.31;5031339;28;20639;-66
2022/05/20 11:21:24;;;;;;;7.93;6.03;;;30.50;60.30;;;31.48;nan;100619.00;5029166;28;20640;-67
2022/05/20 11:24:10;;;;;;;6.93;5.30;;;30.60;59.90;;;31.61;nan;100615.97;5029823;28;20630;-71
2022/05/20 11:27:37;;;;;;;7.30;5.30;;;30.80;59.60;;;31.49;nan;100604.47;5029653;28;20672;-67
2022/05/20 11:30:12;;;;;;;8.67;5.60;;;30.70;59.70;;;31.70;nan;100605.56;5031195;28;20632;-67